sensor_id;sensor_type;location;lat;lon;timestamp;pressure;altitude;pressure_sealevel;temperature;humidity
75536;BME280;64119;52.070;20.804;2023-12-07T00:02:14;100820.86;;;-1.13;95.24
75536;BME280;64119;52.070;20.804;2023-12-07T00:04:42;100823.02;;;-1.12;95.07
75536;BME280;64119;52.070;20.804;2023-12-07T00:07:10;100821.08;;;-1.12;95.38
75536;BME280;64119;52.070;20.804;2023-12-07T00:09:37;100820.06;;;-1.12;95.43
75536;BME280;64119;52.070;20.804;2023-12-07T00:12:06;100821.60;;;-1.12;95.68
75536;BME280;64119;52.070;20.804;2023-12-07T00:14:33;100826.29;;;-1.11;95.85
75536;BME280;64119;52.070;20.804;2023-12-07T00:17:01;100830.44;;;-1.11;96.19
75536;BME280;64119;52.070;20.804;2023-12-07T00:19:30;100829.85;;;-1.11;96.02
75536;BME280;64119;52.070;20.804;2023-12-07T00:21:58;100830.40;;;-1.11;96.35
75536;BME280;64119;52.070;20.804;2023-12-07T00:24:26;100831.29;;;-1.11;96.07
75536;BME280;64119;52.070;20.804;2023-12-07T00:26:54;100831.47;;;-1.11;96.32
75536;BME280;64119;52.070;20.804;2023-12-07T00:29:23;100827.60;;;-1.11;96.49
75536;BME280;64119;52.070;20.804;2023-12-07T00:31:51;100829.02;;;-1.08;95.91
75536;BME280;64119;52.070;20.804;2023-12-07T00:34:19;100832.04;;;-1.07;96.14
75536;BME280;64119;52.070;20.804;2023-12-07T00:36:47;100833.23;;;-1.06;95.98
75536;BME280;64119;52.070;20.804;2023-12-07T00:39:15;100829.47;;;-1.05;95.94
75536;BME280;64119;52.070;20.804;2023-12-07T00:41:44;100830.64;;;-1.04;95.57
75536;BME280;64119;52.070;20.804;2023-12-07T00:44:14;100828.15;;;-1.03;96.07
75536;BME280;64119;52.070;20.804;2023-12-07T00:46:42;100829.97;;;-1.02;95.83
75536;BME280;64119;52.070;20.804;2023-12-07T00:49:10;100830.07;;;-1.01;96.16
75536;BME280;64119;52.070;20.804;2023-12-07T00:51:39;100829.98;;;-1.02;96.61
75536;BME280;64119;52.070;20.804;2023-12-07T00:54:07;100831.91;;;-1.02;96.53
75536;BME280;64119;52.070;20.804;2023-12-07T00:56:35;100831.46;;;-1.01;96.84
75536;BME280;64119;52.070;20.804;2023-12-07T00:59:05;100832.51;;;-1.01;97.11
75536;BME280;64119;52.070;20.804;2023-12-07T01:01:33;100835.55;;;-1.00;96.78
75536;BME280;64119;52.070;20.804;2023-12-07T01:04:00;100837.33;;;-0.98;96.65
75536;BME280;64119;52.070;20.804;2023-12-07T01:06:29;100836.52;;;-0.96;96.09
75536;BME280;64119;52.070;20.804;2023-12-07T01:08:57;100839.91;;;-0.95;96.05
75536;BME280;64119;52.070;20.804;2023-12-07T01:32:47;100830.45;;;-0.49;96.90
75536;BME280;64119;52.070;20.804;2023-12-07T01:35:15;100829.55;;;-0.51;96.83
75536;BME280;64119;52.070;20.804;2023-12-07T01:37:43;100825.46;;;-0.55;96.86
75536;BME280;64119;52.070;20.804;2023-12-07T01:40:11;100823.44;;;-0.57;96.83
75536;BME280;64119;52.070;20.804;2023-12-07T01:42:39;100826.23;;;-0.60;96.86
75536;BME280;64119;52.070;20.804;2023-12-07T01:45:07;100822.73;;;-0.62;96.87
75536;BME280;64119;52.070;20.804;2023-12-07T01:47:36;100821.40;;;-0.63;96.66
75536;BME280;64119;52.070;20.804;2023-12-07T01:50:05;100818.34;;;-0.67;96.88
75536;BME280;64119;52.070;20.804;2023-12-07T01:52:37;100818.88;;;-0.67;97.33
75536;BME280;64119;52.070;20.804;2023-12-07T01:55:07;100820.73;;;-0.69;97.45
75536;BME280;64119;52.070;20.804;2023-12-07T01:57:37;100824.63;;;-0.70;97.28
75536;BME280;64119;52.070;20.804;2023-12-07T02:00:05;100824.48;;;-0.71;97.04
75536;BME280;64119;52.070;20.804;2023-12-07T02:02:33;100822.96;;;-0.71;96.95
75536;BME280;64119;52.070;20.804;2023-12-07T02:05:01;100819.95;;;-0.72;97.02
75536;BME280;64119;52.070;20.804;2023-12-07T02:07:31;100819.45;;;-0.73;97.45
75536;BME280;64119;52.070;20.804;2023-12-07T02:09:59;100816.94;;;-0.74;97.97
75536;BME280;64119;52.070;20.804;2023-12-07T02:12:27;100819.96;;;-0.73;96.90
75536;BME280;64119;52.070;20.804;2023-12-07T02:14:57;100820.10;;;-0.72;96.64
75536;BME280;64119;52.070;20.804;2023-12-07T02:20:36;100827.34;;;-0.72;97.06
75536;BME280;64119;52.070;20.804;2023-12-07T02:23:07;100826.33;;;-0.72;97.52
75536;BME280;64119;52.070;20.804;2023-12-07T02:25:41;100828.23;;;-0.72;97.34
75536;BME280;64119;52.070;20.804;2023-12-07T02:28:47;100827.39;;;-0.72;98.69
75536;BME280;64119;52.070;20.804;2023-12-07T02:31:15;100831.23;;;-0.70;97.96
75536;BME280;64119;52.070;20.804;2023-12-07T02:33:43;100828.67;;;-0.71;98.70
75536;BME280;64119;52.070;20.804;2023-12-07T02:36:13;100831.55;;;-0.70;97.99
75536;BME280;64119;52.070;20.804;2023-12-07T02:38:44;100831.16;;;-0.69;97.86
75536;BME280;64119;52.070;20.804;2023-12-07T02:41:12;100832.84;;;-0.68;98.15
75536;BME280;64119;52.070;20.804;2023-12-07T02:43:40;100833.84;;;-0.68;98.19
75536;BME280;64119;52.070;20.804;2023-12-07T02:46:08;100834.76;;;-0.66;97.71
75536;BME280;64119;52.070;20.804;2023-12-07T02:48:36;100830.92;;;-0.65;97.69
75536;BME280;64119;52.070;20.804;2023-12-07T02:51:04;100830.00;;;-0.65;97.62
75536;BME280;64119;52.070;20.804;2023-12-07T02:53:32;100834.13;;;-0.64;97.99
75536;BME280;64119;52.070;20.804;2023-12-07T02:56:00;100832.57;;;-0.64;98.36
75536;BME280;64119;52.070;20.804;2023-12-07T02:58:28;100832.55;;;-0.64;97.89
75536;BME280;64119;52.070;20.804;2023-12-07T03:00:56;100831.65;;;-0.63;98.06
75536;BME280;64119;52.070;20.804;2023-12-07T03:03:24;100829.47;;;-0.62;97.50
75536;BME280;64119;52.070;20.804;2023-12-07T03:05:53;100831.73;;;-0.62;97.54
75536;BME280;64119;52.070;20.804;2023-12-07T03:08:21;100835.17;;;-0.62;97.93
75536;BME280;64119;52.070;20.804;2023-12-07T03:10:49;100833.98;;;-0.62;98.76
75536;BME280;64119;52.070;20.804;2023-12-07T03:13:17;100831.55;;;-0.62;98.36
75536;BME280;64119;52.070;20.804;2023-12-07T03:15:44;100828.31;;;-0.60;97.91
75536;BME280;64119;52.070;20.804;2023-12-07T03:18:12;100830.70;;;-0.60;97.83
75536;BME280;64119;52.070;20.804;2023-12-07T03:20:40;100827.62;;;-0.60;97.97
75536;BME280;64119;52.070;20.804;2023-12-07T03:23:09;100831.90;;;-0.59;98.02
75536;BME280;64119;52.070;20.804;2023-12-07T03:25:36;100838.11;;;-0.59;97.98
75536;BME280;64119;52.070;20.804;2023-12-07T03:28:05;100839.63;;;-0.58;98.09
75536;BME280;64119;52.070;20.804;2023-12-07T03:30:32;100839.67;;;-0.59;98.33
75536;BME280;64119;52.070;20.804;2023-12-07T03:33:00;100839.64;;;-0.59;98.55
75536;BME280;64119;52.070;20.804;2023-12-07T03:35:28;100843.19;;;-0.57;98.37
75536;BME280;64119;52.070;20.804;2023-12-07T03:37:56;100846.11;;;-0.56;98.40
75536;BME280;64119;52.070;20.804;2023-12-07T03:40:24;100845.94;;;-0.57;98.27
75536;BME280;64119;52.070;20.804;2023-12-07T03:42:53;100844.57;;;-0.57;98.64
75536;BME280;64119;52.070;20.804;2023-12-07T03:45:23;100844.20;;;-0.57;98.77
75536;BME280;64119;52.070;20.804;2023-12-07T03:47:51;100851.41;;;-0.56;98.84
75536;BME280;64119;52.070;20.804;2023-12-07T03:50:19;100843.56;;;-0.55;98.87
75536;BME280;64119;52.070;20.804;2023-12-07T03:52:47;100845.71;;;-0.53;98.36
75536;BME280;64119;52.070;20.804;2023-12-07T03:55:16;100848.39;;;-0.55;98.83
75536;BME280;64119;52.070;20.804;2023-12-07T03:57:44;100848.17;;;-0.54;98.30
75536;BME280;64119;52.070;20.804;2023-12-07T04:00:12;100844.34;;;-0.53;98.58
75536;BME280;64119;52.070;20.804;2023-12-07T04:02:40;100847.00;;;-0.52;98.33
75536;BME280;64119;52.070;20.804;2023-12-07T04:05:08;100849.01;;;-0.51;98.09
75536;BME280;64119;52.070;20.804;2023-12-07T04:07:36;100846.20;;;-0.51;97.67
75536;BME280;64119;52.070;20.804;2023-12-07T04:10:04;100846.65;;;-0.50;97.61
75536;BME280;64119;52.070;20.804;2023-12-07T04:12:33;100849.58;;;-0.49;97.62
75536;BME280;64119;52.070;20.804;2023-12-07T04:15:01;100849.41;;;-0.49;97.92
75536;BME280;64119;52.070;20.804;2023-12-07T04:17:30;100849.79;;;-0.50;98.28
75536;BME280;64119;52.070;20.804;2023-12-07T04:19:58;100849.04;;;-0.49;98.43
75536;BME280;64119;52.070;20.804;2023-12-07T04:22:26;100846.81;;;-0.49;98.90
75536;BME280;64119;52.070;20.804;2023-12-07T04:24:54;100843.54;;;-0.50;98.98
75536;BME280;64119;52.070;20.804;2023-12-07T04:27:22;100844.07;;;-0.50;98.80
75536;BME280;64119;52.070;20.804;2023-12-07T04:29:50;100841.98;;;-0.50;98.20
75536;BME280;64119;52.070;20.804;2023-12-07T04:32:18;100840.28;;;-0.50;98.33
75536;BME280;64119;52.070;20.804;2023-12-07T04:34:46;100840.17;;;-0.49;98.17
75536;BME280;64119;52.070;20.804;2023-12-07T04:37:14;100844.04;;;-0.49;98.75
75536;BME280;64119;52.070;20.804;2023-12-07T04:39:42;100845.24;;;-0.49;98.77
75536;BME280;64119;52.070;20.804;2023-12-07T04:42:10;100843.00;;;-0.49;98.87
75536;BME280;64119;52.070;20.804;2023-12-07T04:44:38;100848.71;;;-0.49;98.85
75536;BME280;64119;52.070;20.804;2023-12-07T04:47:06;100847.38;;;-0.48;97.93
75536;BME280;64119;52.070;20.804;2023-12-07T04:49:34;100849.94;;;-0.47;98.39
75536;BME280;64119;52.070;20.804;2023-12-07T04:52:02;100850.27;;;-0.46;98.12
75536;BME280;64119;52.070;20.804;2023-12-07T04:54:29;100847.95;;;-0.45;97.92
75536;BME280;64119;52.070;20.804;2023-12-07T04:56:57;100850.16;;;-0.45;98.03
75536;BME280;64119;52.070;20.804;2023-12-07T04:59:25;100849.60;;;-0.45;97.76
75536;BME280;64119;52.070;20.804;2023-12-07T05:01:53;100849.80;;;-0.45;97.97
75536;BME280;64119;52.070;20.804;2023-12-07T05:04:22;100850.64;;;-0.44;98.10
75536;BME280;64119;52.070;20.804;2023-12-07T05:06:50;100851.38;;;-0.45;98.53
75536;BME280;64119;52.070;20.804;2023-12-07T05:09:18;100848.30;;;-0.46;98.38
75536;BME280;64119;52.070;20.804;2023-12-07T05:11:46;100848.96;;;-0.45;98.50
75536;BME280;64119;52.070;20.804;2023-12-07T05:14:14;100850.16;;;-0.45;98.05
75536;BME280;64119;52.070;20.804;2023-12-07T05:16:41;100856.48;;;-0.46;98.60
75536;BME280;64119;52.070;20.804;2023-12-07T05:19:09;100858.06;;;-0.46;98.51
75536;BME280;64119;52.070;20.804;2023-12-07T05:21:38;100856.90;;;-0.47;98.95
75536;BME280;64119;52.070;20.804;2023-12-07T05:24:06;100860.84;;;-0.46;98.38
75536;BME280;64119;52.070;20.804;2023-12-07T05:26:33;100859.64;;;-0.47;98.73
75536;BME280;64119;52.070;20.804;2023-12-07T05:29:02;100861.62;;;-0.47;98.76
75536;BME280;64119;52.070;20.804;2023-12-07T05:31:29;100860.75;;;-0.47;98.19
75536;BME280;64119;52.070;20.804;2023-12-07T05:33:57;100866.11;;;-0.47;98.22
75536;BME280;64119;52.070;20.804;2023-12-07T05:36:27;100866.81;;;-0.47;98.61
75536;BME280;64119;52.070;20.804;2023-12-07T05:38:56;100870.80;;;-0.47;98.60
75536;BME280;64119;52.070;20.804;2023-12-07T05:41:23;100873.84;;;-0.48;98.74
75536;BME280;64119;52.070;20.804;2023-12-07T05:43:53;100875.19;;;-0.48;98.50
75536;BME280;64119;52.070;20.804;2023-12-07T05:46:21;100870.50;;;-0.48;98.74
75536;BME280;64119;52.070;20.804;2023-12-07T05:48:49;100871.00;;;-0.47;98.50
75536;BME280;64119;52.070;20.804;2023-12-07T05:51:20;100875.14;;;-0.47;98.06
75536;BME280;64119;52.070;20.804;2023-12-07T05:53:48;100876.16;;;-0.47;98.31
75536;BME280;64119;52.070;20.804;2023-12-07T05:56:19;100877.78;;;-0.48;98.59
75536;BME280;64119;52.070;20.804;2023-12-07T05:58:50;100880.86;;;-0.47;98.60
75536;BME280;64119;52.070;20.804;2023-12-07T06:01:18;100882.83;;;-0.45;98.24
75536;BME280;64119;52.070;20.804;2023-12-07T06:03:47;100887.45;;;-0.44;98.10
75536;BME280;64119;52.070;20.804;2023-12-07T06:06:14;100887.45;;;-0.44;98.24
75536;BME280;64119;52.070;20.804;2023-12-07T06:08:44;100892.03;;;-0.45;98.63
75536;BME280;64119;52.070;20.804;2023-12-07T06:11:12;100895.69;;;-0.45;98.85
75536;BME280;64119;52.070;20.804;2023-12-07T06:13:40;100895.42;;;-0.44;98.26
75536;BME280;64119;52.070;20.804;2023-12-07T06:16:12;100898.70;;;-0.44;98.36
75536;BME280;64119;52.070;20.804;2023-12-07T06:18:41;100907.95;;;-0.44;98.73
75536;BME280;64119;52.070;20.804;2023-12-07T06:21:09;100907.79;;;-0.44;98.61
75536;BME280;64119;52.070;20.804;2023-12-07T06:23:36;100909.09;;;-0.43;98.70
75536;BME280;64119;52.070;20.804;2023-12-07T06:26:05;100913.61;;;-0.43;98.50
75536;BME280;64119;52.070;20.804;2023-12-07T06:28:34;100919.45;;;-0.42;98.67
75536;BME280;64119;52.070;20.804;2023-12-07T06:31:05;100922.84;;;-0.41;98.34
75536;BME280;64119;52.070;20.804;2023-12-07T06:33:35;100923.11;;;-0.40;98.19
75536;BME280;64119;52.070;20.804;2023-12-07T06:36:03;100923.38;;;-0.38;98.51
75536;BME280;64119;52.070;20.804;2023-12-07T06:38:31;100923.21;;;-0.39;98.31
75536;BME280;64119;52.070;20.804;2023-12-07T06:40:59;100922.95;;;-0.38;98.51
75536;BME280;64119;52.070;20.804;2023-12-07T06:43:27;100919.48;;;-0.38;98.36
75536;BME280;64119;52.070;20.804;2023-12-07T06:45:55;100919.39;;;-0.36;98.64
75536;BME280;64119;52.070;20.804;2023-12-07T06:48:24;100920.55;;;-0.36;98.50
75536;BME280;64119;52.070;20.804;2023-12-07T06:50:51;100924.81;;;-0.34;98.45
75536;BME280;64119;52.070;20.804;2023-12-07T06:53:19;100928.45;;;-0.34;98.94
75536;BME280;64119;52.070;20.804;2023-12-07T06:55:47;100932.08;;;-0.34;98.89
75536;BME280;64119;52.070;20.804;2023-12-07T06:58:15;100932.94;;;-0.34;99.06
75536;BME280;64119;52.070;20.804;2023-12-07T07:00:43;100932.38;;;-0.33;99.13
75536;BME280;64119;52.070;20.804;2023-12-07T07:03:11;100935.23;;;-0.32;98.92
75536;BME280;64119;52.070;20.804;2023-12-07T07:05:41;100934.97;;;-0.30;98.92
75536;BME280;64119;52.070;20.804;2023-12-07T07:08:09;100938.23;;;-0.28;98.75
75536;BME280;64119;52.070;20.804;2023-12-07T07:10:37;100938.77;;;-0.28;98.58
75536;BME280;64119;52.070;20.804;2023-12-07T07:13:05;100937.09;;;-0.26;98.80
75536;BME280;64119;52.070;20.804;2023-12-07T07:15:33;100941.52;;;-0.25;98.85
75536;BME280;64119;52.070;20.804;2023-12-07T07:18:03;100939.00;;;-0.24;98.62
75536;BME280;64119;52.070;20.804;2023-12-07T07:20:31;100936.63;;;-0.22;99.03
75536;BME280;64119;52.070;20.804;2023-12-07T07:22:59;100934.77;;;-0.20;99.05
75536;BME280;64119;52.070;20.804;2023-12-07T07:25:27;100936.51;;;-0.18;98.65
75536;BME280;64119;52.070;20.804;2023-12-07T07:27:55;100930.30;;;-0.18;98.67
75536;BME280;64119;52.070;20.804;2023-12-07T07:30:23;100932.74;;;-0.16;98.59
75536;BME280;64119;52.070;20.804;2023-12-07T07:32:51;100931.27;;;-0.15;98.50
75536;BME280;64119;52.070;20.804;2023-12-07T07:35:20;100931.94;;;-0.12;98.14
75536;BME280;64119;52.070;20.804;2023-12-07T07:37:48;100933.90;;;-0.11;98.10
75536;BME280;64119;52.070;20.804;2023-12-07T07:40:16;100937.53;;;-0.10;98.70
75536;BME280;64119;52.070;20.804;2023-12-07T07:42:44;100937.95;;;-0.06;98.54
75536;BME280;64119;52.070;20.804;2023-12-07T07:45:13;100937.98;;;-0.02;98.41
75536;BME280;64119;52.070;20.804;2023-12-07T07:47:41;100934.36;;;0.03;98.00
75536;BME280;64119;52.070;20.804;2023-12-07T07:50:09;100934.30;;;0.04;97.98
75536;BME280;64119;52.070;20.804;2023-12-07T07:52:38;100934.40;;;0.05;97.94
75536;BME280;64119;52.070;20.804;2023-12-07T07:55:10;100932.62;;;0.08;97.97
75536;BME280;64119;52.070;20.804;2023-12-07T07:57:38;100935.58;;;0.11;97.97
75536;BME280;64119;52.070;20.804;2023-12-07T08:00:06;100934.30;;;0.11;97.88
75536;BME280;64119;52.070;20.804;2023-12-07T08:02:36;100936.92;;;0.14;98.15
75536;BME280;64119;52.070;20.804;2023-12-07T08:05:04;100937.63;;;0.16;98.02
75536;BME280;64119;52.070;20.804;2023-12-07T08:07:32;100935.66;;;0.17;97.93
75536;BME280;64119;52.070;20.804;2023-12-07T08:10:00;100935.44;;;0.19;98.05
75536;BME280;64119;52.070;20.804;2023-12-07T08:12:28;100934.76;;;0.22;98.08
75536;BME280;64119;52.070;20.804;2023-12-07T08:14:55;100937.08;;;0.26;98.26
75536;BME280;64119;52.070;20.804;2023-12-07T08:17:24;100938.59;;;0.29;97.74
75536;BME280;64119;52.070;20.804;2023-12-07T08:19:54;100945.05;;;0.33;97.69
75536;BME280;64119;52.070;20.804;2023-12-07T08:22:22;100949.30;;;0.35;97.36
75536;BME280;64119;52.070;20.804;2023-12-07T08:24:50;100948.58;;;0.35;97.60
75536;BME280;64119;52.070;20.804;2023-12-07T08:27:32;100955.10;;;0.39;97.67
75536;BME280;64119;52.070;20.804;2023-12-07T08:30:01;100954.78;;;0.41;97.45
75536;BME280;64119;52.070;20.804;2023-12-07T08:32:29;100960.27;;;0.40;97.37
75536;BME280;64119;52.070;20.804;2023-12-07T08:34:57;100956.88;;;0.43;97.51
75536;BME280;64119;52.070;20.804;2023-12-07T08:37:25;100960.80;;;0.44;97.83
75536;BME280;64119;52.070;20.804;2023-12-07T08:39:53;100962.09;;;0.46;97.56
75536;BME280;64119;52.070;20.804;2023-12-07T08:42:21;100964.17;;;0.48;97.62
75536;BME280;64119;52.070;20.804;2023-12-07T08:44:50;100966.42;;;0.50;97.48
75536;BME280;64119;52.070;20.804;2023-12-07T08:47:18;100964.04;;;0.52;97.46
75536;BME280;64119;52.070;20.804;2023-12-07T08:49:46;100964.30;;;0.54;97.31
75536;BME280;64119;52.070;20.804;2023-12-07T08:52:14;100961.80;;;0.55;97.29
75536;BME280;64119;52.070;20.804;2023-12-07T08:55:02;100957.71;;;0.55;97.37
75536;BME280;64119;52.070;20.804;2023-12-07T08:57:30;100957.04;;;0.55;96.96
75536;BME280;64119;52.070;20.804;2023-12-07T08:59:58;100957.07;;;0.55;97.38
75536;BME280;64119;52.070;20.804;2023-12-07T09:02:27;100955.11;;;0.53;97.28
75536;BME280;64119;52.070;20.804;2023-12-07T09:05:09;100955.92;;;0.56;97.36
75536;BME280;64119;52.070;20.804;2023-12-07T09:07:36;100956.38;;;0.57;97.38
75536;BME280;64119;52.070;20.804;2023-12-07T09:10:05;100956.44;;;0.59;97.42
75536;BME280;64119;52.070;20.804;2023-12-07T09:12:33;100959.46;;;0.63;97.21
75536;BME280;64119;52.070;20.804;2023-12-07T09:15:07;100958.40;;;0.60;97.22
75536;BME280;64119;52.070;20.804;2023-12-07T09:17:37;100961.86;;;0.61;97.12
75536;BME280;64119;52.070;20.804;2023-12-07T09:20:07;100961.60;;;0.62;97.37
75536;BME280;64119;52.070;20.804;2023-12-07T09:22:44;100961.85;;;0.65;97.10
75536;BME280;64119;52.070;20.804;2023-12-07T09:25:13;100964.27;;;0.68;97.02
75536;BME280;64119;52.070;20.804;2023-12-07T09:27:42;100964.59;;;0.66;97.06
75536;BME280;64119;52.070;20.804;2023-12-07T09:30:11;100965.14;;;0.64;97.15
75536;BME280;64119;52.070;20.804;2023-12-07T09:32:41;100964.20;;;0.64;97.15
75536;BME280;64119;52.070;20.804;2023-12-07T09:35:12;100963.10;;;0.68;97.48
75536;BME280;64119;52.070;20.804;2023-12-07T09:37:48;100964.23;;;0.69;97.03
75536;BME280;64119;52.070;20.804;2023-12-07T09:40:17;100960.30;;;0.65;96.96
75536;BME280;64119;52.070;20.804;2023-12-07T09:42:46;100957.30;;;0.66;97.17
75536;BME280;64119;52.070;20.804;2023-12-07T09:45:15;100957.48;;;0.63;97.22
75536;BME280;64119;52.070;20.804;2023-12-07T09:47:51;100956.75;;;0.66;97.06
75536;BME280;64119;52.070;20.804;2023-12-07T09:50:22;100961.29;;;0.61;96.95
75536;BME280;64119;52.070;20.804;2023-12-07T09:52:53;100961.49;;;0.61;96.88
75536;BME280;64119;52.070;20.804;2023-12-07T09:55:35;100961.73;;;0.62;97.19
75536;BME280;64119;52.070;20.804;2023-12-07T09:58:06;100964.89;;;0.65;96.77
75536;BME280;64119;52.070;20.804;2023-12-07T10:00:36;100962.96;;;0.67;96.96
75536;BME280;64119;52.070;20.804;2023-12-07T10:03:06;100961.42;;;0.69;96.41
75536;BME280;64119;52.070;20.804;2023-12-07T10:05:54;100964.27;;;0.73;96.57
75536;BME280;64119;52.070;20.804;2023-12-07T10:08:31;100965.71;;;0.72;96.22
75536;BME280;64119;52.070;20.804;2023-12-07T10:11:07;100969.66;;;0.71;95.95
75536;BME280;64119;52.070;20.804;2023-12-07T10:13:36;100973.59;;;0.72;96.33
75536;BME280;64119;52.070;20.804;2023-12-07T10:16:13;100974.42;;;0.72;96.49
75536;BME280;64119;52.070;20.804;2023-12-07T10:18:45;100976.27;;;0.74;96.20
75536;BME280;64119;52.070;20.804;2023-12-07T10:21:13;100975.05;;;0.71;96.12
75536;BME280;64119;52.070;20.804;2023-12-07T10:23:42;100972.66;;;0.70;96.07
75536;BME280;64119;52.070;20.804;2023-12-07T10:26:17;100971.41;;;0.71;96.73
75536;BME280;64119;52.070;20.804;2023-12-07T10:28:49;100966.27;;;0.75;96.65
75536;BME280;64119;52.070;20.804;2023-12-07T10:31:22;100970.70;;;0.73;96.38
75536;BME280;64119;52.070;20.804;2023-12-07T10:33:50;100972.06;;;0.74;96.57
75536;BME280;64119;52.070;20.804;2023-12-07T10:36:19;100974.61;;;0.77;96.44
75536;BME280;64119;52.070;20.804;2023-12-07T10:38:47;100973.56;;;0.72;95.76
75536;BME280;64119;52.070;20.804;2023-12-07T10:41:23;100971.95;;;0.71;95.82
75536;BME280;64119;52.070;20.804;2023-12-07T10:44:00;100969.36;;;0.75;96.55
75536;BME280;64119;52.070;20.804;2023-12-07T10:46:29;100969.39;;;0.77;96.12
75536;BME280;64119;52.070;20.804;2023-12-07T10:49:04;100964.65;;;0.77;96.48
75536;BME280;64119;52.070;20.804;2023-12-07T10:51:42;100961.55;;;0.79;96.43
75536;BME280;64119;52.070;20.804;2023-12-07T10:54:15;100963.04;;;0.83;96.23
75536;BME280;64119;52.070;20.804;2023-12-07T10:56:45;100964.63;;;0.83;96.19
75536;BME280;64119;52.070;20.804;2023-12-07T10:59:15;100963.50;;;0.81;96.19
75536;BME280;64119;52.070;20.804;2023-12-07T11:01:56;100965.42;;;0.81;96.47
75536;BME280;64119;52.070;20.804;2023-12-07T11:04:25;100966.36;;;0.83;96.71
75536;BME280;64119;52.070;20.804;2023-12-07T11:06:55;100965.37;;;0.84;96.56
75536;BME280;64119;52.070;20.804;2023-12-07T11:09:28;100969.27;;;0.83;96.55
75536;BME280;64119;52.070;20.804;2023-12-07T11:12:19;100964.89;;;0.81;96.64
75536;BME280;64119;52.070;20.804;2023-12-07T11:14:49;100967.30;;;0.82;96.73
75536;BME280;64119;52.070;20.804;2023-12-07T11:17:17;100963.73;;;0.83;96.89
75536;BME280;64119;52.070;20.804;2023-12-07T11:19:48;100959.94;;;0.85;96.65
75536;BME280;64119;52.070;20.804;2023-12-07T11:22:17;100957.10;;;0.83;96.72
75536;BME280;64119;52.070;20.804;2023-12-07T11:24:53;100954.05;;;0.82;97.19
75536;BME280;64119;52.070;20.804;2023-12-07T11:27:21;100950.76;;;0.82;97.01
75536;BME280;64119;52.070;20.804;2023-12-07T11:29:51;100952.13;;;0.82;96.98
75536;BME280;64119;52.070;20.804;2023-12-07T11:32:19;100948.58;;;0.83;97.02
75536;BME280;64119;52.070;20.804;2023-12-07T11:35:03;100946.86;;;0.81;97.15
75536;BME280;64119;52.070;20.804;2023-12-07T11:40:30;100944.95;;;0.83;96.86
75536;BME280;64119;52.070;20.804;2023-12-07T11:43:00;100952.15;;;0.84;97.04
75536;BME280;64119;52.070;20.804;2023-12-07T11:45:38;100952.53;;;0.88;97.31
75536;BME280;64119;52.070;20.804;2023-12-07T11:48:11;100952.64;;;0.94;96.87
75536;BME280;64119;52.070;20.804;2023-12-07T11:53:29;100951.48;;;0.91;96.02
75536;BME280;64119;52.070;20.804;2023-12-07T11:56:02;100949.20;;;0.86;95.91
75536;BME280;64119;52.070;20.804;2023-12-07T11:58:32;100947.44;;;0.84;96.43
75536;BME280;64119;52.070;20.804;2023-12-07T12:01:06;100950.89;;;0.87;96.65
75536;BME280;64119;52.070;20.804;2023-12-07T12:03:36;100952.63;;;0.89;96.96
75536;BME280;64119;52.070;20.804;2023-12-07T12:06:06;100948.39;;;0.90;96.38
75536;BME280;64119;52.070;20.804;2023-12-07T12:08:40;100949.98;;;0.92;96.88
75536;BME280;64119;52.070;20.804;2023-12-07T12:11:09;100947.20;;;0.96;96.01
75536;BME280;64119;52.070;20.804;2023-12-07T12:13:37;100949.41;;;1.00;95.87
75536;BME280;64119;52.070;20.804;2023-12-07T12:16:06;100950.80;;;1.00;95.80
75536;BME280;64119;52.070;20.804;2023-12-07T12:18:34;100951.52;;;0.99;95.87
75536;BME280;64119;52.070;20.804;2023-12-07T12:21:03;100952.27;;;0.99;95.99
75536;BME280;64119;52.070;20.804;2023-12-07T12:23:31;100959.13;;;0.96;95.88
75536;BME280;64119;52.070;20.804;2023-12-07T12:26:00;100956.67;;;0.89;96.05
75536;BME280;64119;52.070;20.804;2023-12-07T12:28:28;100959.79;;;0.84;96.04
75536;BME280;64119;52.070;20.804;2023-12-07T12:30:57;100956.80;;;0.80;95.81
75536;BME280;64119;52.070;20.804;2023-12-07T12:33:25;100956.86;;;0.79;96.17
75536;BME280;64119;52.070;20.804;2023-12-07T12:36:04;100959.02;;;0.71;95.49
75536;BME280;64119;52.070;20.804;2023-12-07T12:38:34;100961.15;;;0.61;95.44
75536;BME280;64119;52.070;20.804;2023-12-07T12:41:10;100960.02;;;0.52;95.42
75536;BME280;64119;52.070;20.804;2023-12-07T12:43:39;100962.84;;;0.50;95.71
75536;BME280;64119;52.070;20.804;2023-12-07T12:46:08;100962.22;;;0.51;95.46
75536;BME280;64119;52.070;20.804;2023-12-07T12:48:35;100963.40;;;0.49;95.72
75536;BME280;64119;52.070;20.804;2023-12-07T12:51:08;100962.33;;;0.45;96.21
75536;BME280;64119;52.070;20.804;2023-12-07T12:53:41;100964.27;;;0.44;96.19
75536;BME280;64119;52.070;20.804;2023-12-07T12:56:10;100962.05;;;0.46;96.63
75536;BME280;64119;52.070;20.804;2023-12-07T12:58:38;100962.88;;;0.47;96.72
75536;BME280;64119;52.070;20.804;2023-12-07T13:01:06;100965.48;;;0.49;96.48
75536;BME280;64119;52.070;20.804;2023-12-07T13:03:35;100960.89;;;0.45;96.42
75536;BME280;64119;52.070;20.804;2023-12-07T13:06:04;100963.34;;;0.45;96.24
75536;BME280;64119;52.070;20.804;2023-12-07T13:08:33;100965.07;;;0.38;96.59
75536;BME280;64119;52.070;20.804;2023-12-07T13:11:01;100971.36;;;0.33;96.41
75536;BME280;64119;52.070;20.804;2023-12-07T13:13:31;100971.15;;;0.29;96.08
75536;BME280;64119;52.070;20.804;2023-12-07T13:15:59;100971.96;;;0.27;95.91
75536;BME280;64119;52.070;20.804;2023-12-07T13:18:27;100974.94;;;0.22;95.42
75536;BME280;64119;52.070;20.804;2023-12-07T13:20:55;100977.08;;;0.21;96.01
75536;BME280;64119;52.070;20.804;2023-12-07T13:23:23;100972.52;;;0.19;96.44
75536;BME280;64119;52.070;20.804;2023-12-07T13:25:51;100971.73;;;0.18;96.29
75536;BME280;64119;52.070;20.804;2023-12-07T13:28:19;100978.96;;;0.17;96.79